sensor_id;sensor_type;location;lat;lon;timestamp;pressure;altitude;pressure_sealevel;temperature;humidity
52935;BME280;38802;50.198;19.796;2023-06-05T00:00:50;96707.27;;;13.56;46.52
52935;BME280;38802;50.198;19.796;2023-06-05T00:03:38;96704.45;;;13.53;46.46
52935;BME280;38802;50.198;19.796;2023-06-05T00:06:07;96703.09;;;13.50;46.67
52935;BME280;38802;50.198;19.796;2023-06-05T00:08:35;96703.80;;;13.45;46.84
52935;BME280;38802;50.198;19.796;2023-06-05T00:11:03;96704.15;;;13.41;46.98
52935;BME280;38802;50.198;19.796;2023-06-05T00:13:31;96697.77;;;13.38;47.06
52935;BME280;38802;50.198;19.796;2023-06-05T00:15:59;96701.85;;;13.36;47.06
52935;BME280;38802;50.198;19.796;2023-06-05T00:18:30;96702.41;;;13.33;47.26
52935;BME280;38802;50.198;19.796;2023-06-05T00:20:58;96701.53;;;13.31;47.18
52935;BME280;38802;50.198;19.796;2023-06-05T00:23:26;96700.30;;;13.29;47.34
52935;BME280;38802;50.198;19.796;2023-06-05T00:25:55;96699.59;;;13.28;47.27
52935;BME280;38802;50.198;19.796;2023-06-05T00:28:23;96705.15;;;13.28;47.45
52935;BME280;38802;50.198;19.796;2023-06-05T00:30:52;96703.48;;;13.25;47.48
52935;BME280;38802;50.198;19.796;2023-06-05T00:33:20;96704.39;;;13.23;47.64
52935;BME280;38802;50.198;19.796;2023-06-05T00:35:48;96700.45;;;13.22;47.61
52935;BME280;38802;50.198;19.796;2023-06-05T00:38:16;96695.68;;;13.20;47.67
52935;BME280;38802;50.198;19.796;2023-06-05T00:40:44;96694.31;;;13.18;47.60
52935;BME280;38802;50.198;19.796;2023-06-05T00:43:12;96693.55;;;13.14;47.57
52935;BME280;38802;50.198;19.796;2023-06-05T00:45:40;96693.88;;;13.12;47.68
52935;BME280;38802;50.198;19.796;2023-06-05T00:48:08;96693.13;;;13.11;48.13
52935;BME280;38802;50.198;19.796;2023-06-05T00:50:36;96690.10;;;13.08;48.04
52935;BME280;38802;50.198;19.796;2023-06-05T00:53:06;96691.36;;;13.05;48.00
52935;BME280;38802;50.198;19.796;2023-06-05T00:55:35;96690.99;;;13.03;47.98
52935;BME280;38802;50.198;19.796;2023-06-05T00:58:04;96689.98;;;13.03;47.82
52935;BME280;38802;50.198;19.796;2023-06-05T01:00:32;96690.04;;;13.03;48.07
52935;BME280;38802;50.198;19.796;2023-06-05T01:03:02;96693.51;;;13.03;47.93
52935;BME280;38802;50.198;19.796;2023-06-05T01:05:30;96691.47;;;13.04;48.28
52935;BME280;38802;50.198;19.796;2023-06-05T01:07:58;96690.79;;;13.04;48.17
52935;BME280;38802;50.198;19.796;2023-06-05T01:10:31;96691.97;;;13.04;48.37
52935;BME280;38802;50.198;19.796;2023-06-05T01:15:31;96690.52;;;13.01;48.31
52935;BME280;38802;50.198;19.796;2023-06-05T01:18:01;96692.02;;;12.99;48.27
52935;BME280;38802;50.198;19.796;2023-06-05T01:20:33;96690.09;;;12.98;48.32
52935;BME280;38802;50.198;19.796;2023-06-05T01:23:04;96689.69;;;12.96;48.53
52935;BME280;38802;50.198;19.796;2023-06-05T01:25:33;96686.63;;;12.95;48.58
52935;BME280;38802;50.198;19.796;2023-06-05T01:28:23;96682.00;;;12.94;48.54
52935;BME280;38802;50.198;19.796;2023-06-05T01:30:59;96681.44;;;12.93;48.56
52935;BME280;38802;50.198;19.796;2023-06-05T01:33:35;96677.83;;;12.92;48.68
52935;BME280;38802;50.198;19.796;2023-06-05T01:36:13;96678.73;;;12.89;48.87
52935;BME280;38802;50.198;19.796;2023-06-05T01:38:42;96679.34;;;12.86;48.93
52935;BME280;38802;50.198;19.796;2023-06-05T01:41:12;96683.19;;;12.84;48.94
52935;BME280;38802;50.198;19.796;2023-06-05T01:43:41;96683.91;;;12.84;48.94
52935;BME280;38802;50.198;19.796;2023-06-05T01:46:10;96684.94;;;12.82;49.15
52935;BME280;38802;50.198;19.796;2023-06-05T01:48:38;96685.20;;;12.79;49.29
52935;BME280;38802;50.198;19.796;2023-06-05T01:51:07;96683.56;;;12.78;49.30
52935;BME280;38802;50.198;19.796;2023-06-05T01:53:36;96684.29;;;12.77;49.31
52935;BME280;38802;50.198;19.796;2023-06-05T01:56:04;96682.10;;;12.72;49.42
52935;BME280;38802;50.198;19.796;2023-06-05T01:58:34;96680.80;;;12.69;49.50
52935;BME280;38802;50.198;19.796;2023-06-05T02:01:04;96677.09;;;12.68;49.74
52935;BME280;38802;50.198;19.796;2023-06-05T02:03:33;96676.39;;;12.64;49.76
52935;BME280;38802;50.198;19.796;2023-06-05T02:06:01;96674.15;;;12.59;49.93
52935;BME280;38802;50.198;19.796;2023-06-05T02:08:30;96673.41;;;12.57;50.15
52935;BME280;38802;50.198;19.796;2023-06-05T02:10:58;96672.11;;;12.54;50.14
52935;BME280;38802;50.198;19.796;2023-06-05T02:13:30;96671.60;;;12.52;50.11
52935;BME280;38802;50.198;19.796;2023-06-05T02:16:01;96675.84;;;12.51;50.22
52935;BME280;38802;50.198;19.796;2023-06-05T02:18:30;96677.09;;;12.49;50.11
52935;BME280;38802;50.198;19.796;2023-06-05T02:20:58;96680.16;;;12.49;50.44
52935;BME280;38802;50.198;19.796;2023-06-05T02:23:26;96680.94;;;12.48;50.39
52935;BME280;38802;50.198;19.796;2023-06-05T02:25:54;96678.02;;;12.46;50.40
52935;BME280;38802;50.198;19.796;2023-06-05T02:28:23;96682.58;;;12.43;50.76
52935;BME280;38802;50.198;19.796;2023-06-05T02:30:51;96680.17;;;12.39;50.75
52935;BME280;38802;50.198;19.796;2023-06-05T02:33:19;96679.57;;;12.38;50.82
52935;BME280;38802;50.198;19.796;2023-06-05T02:35:49;96682.33;;;12.36;50.93
52935;BME280;38802;50.198;19.796;2023-06-05T02:38:17;96680.78;;;12.34;50.91
52935;BME280;38802;50.198;19.796;2023-06-05T02:40:45;96679.09;;;12.31;50.93
52935;BME280;38802;50.198;19.796;2023-06-05T02:43:14;96675.66;;;12.26;51.07
52935;BME280;38802;50.198;19.796;2023-06-05T02:45:42;96674.19;;;12.21;51.08
52935;BME280;38802;50.198;19.796;2023-06-05T02:48:10;96677.93;;;12.18;51.34
52935;BME280;38802;50.198;19.796;2023-06-05T02:50:38;96676.23;;;12.15;51.32
52935;BME280;38802;50.198;19.796;2023-06-05T02:53:07;96672.98;;;12.14;51.37
52935;BME280;38802;50.198;19.796;2023-06-05T02:55:36;96676.04;;;12.15;51.68
52935;BME280;38802;50.198;19.796;2023-06-05T02:58:09;96676.85;;;12.13;51.61
52935;BME280;38802;50.198;19.796;2023-06-05T03:00:44;96677.67;;;12.14;51.70
52935;BME280;38802;50.198;19.796;2023-06-05T03:03:15;96676.55;;;12.13;52.06
52935;BME280;38802;50.198;19.796;2023-06-05T03:05:46;96679.45;;;12.11;51.92
52935;BME280;38802;50.198;19.796;2023-06-05T03:08:16;96677.14;;;12.12;52.05
52935;BME280;38802;50.198;19.796;2023-06-05T03:10:46;96674.80;;;12.11;52.56
52935;BME280;38802;50.198;19.796;2023-06-05T03:13:14;96674.91;;;12.12;52.23
52935;BME280;38802;50.198;19.796;2023-06-05T03:18:42;96676.77;;;12.17;52.72
52935;BME280;38802;50.198;19.796;2023-06-05T03:21:10;96674.33;;;12.15;52.72
52935;BME280;38802;50.198;19.796;2023-06-05T03:23:39;96672.29;;;12.14;53.21
52935;BME280;38802;50.198;19.796;2023-06-05T03:26:08;96677.28;;;12.12;53.00
52935;BME280;38802;50.198;19.796;2023-06-05T03:28:36;96673.95;;;12.13;53.24
52935;BME280;38802;50.198;19.796;2023-06-05T03:31:07;96674.70;;;12.14;52.98
52935;BME280;38802;50.198;19.796;2023-06-05T03:33:40;96675.33;;;12.15;52.95
52935;BME280;38802;50.198;19.796;2023-06-05T03:36:08;96677.20;;;12.16;53.37
52935;BME280;38802;50.198;19.796;2023-06-05T03:38:37;96675.52;;;12.15;53.20
52935;BME280;38802;50.198;19.796;2023-06-05T03:41:05;96674.91;;;12.18;53.22
52935;BME280;38802;50.198;19.796;2023-06-05T03:43:33;96676.45;;;12.18;53.32
52935;BME280;38802;50.198;19.796;2023-06-05T03:46:02;96675.55;;;12.19;53.65
52935;BME280;38802;50.198;19.796;2023-06-05T03:48:31;96677.52;;;12.16;53.65
52935;BME280;38802;50.198;19.796;2023-06-05T03:50:59;96679.44;;;12.16;53.66
52935;BME280;38802;50.198;19.796;2023-06-05T03:53:28;96680.64;;;12.16;53.66
52935;BME280;38802;50.198;19.796;2023-06-05T03:55:58;96683.67;;;12.16;53.75
52935;BME280;38802;50.198;19.796;2023-06-05T03:58:32;96683.52;;;12.17;53.55
52935;BME280;38802;50.198;19.796;2023-06-05T04:01:01;96683.30;;;12.20;53.77
52935;BME280;38802;50.198;19.796;2023-06-05T04:03:29;96681.10;;;12.21;54.12
52935;BME280;38802;50.198;19.796;2023-06-05T04:05:58;96680.77;;;12.23;53.91
52935;BME280;38802;50.198;19.796;2023-06-05T04:08:26;96679.20;;;12.25;54.02
52935;BME280;38802;50.198;19.796;2023-06-05T04:10:54;96674.77;;;12.26;54.24
52935;BME280;38802;50.198;19.796;2023-06-05T04:13:22;96680.06;;;12.30;54.28
52935;BME280;38802;50.198;19.796;2023-06-05T04:15:50;96680.58;;;12.32;54.34
52935;BME280;38802;50.198;19.796;2023-06-05T04:18:18;96677.87;;;12.35;54.39
52935;BME280;38802;50.198;19.796;2023-06-05T04:20:47;96684.95;;;12.40;54.30
52935;BME280;38802;50.198;19.796;2023-06-05T04:23:15;96683.27;;;12.46;54.45
52935;BME280;38802;50.198;19.796;2023-06-05T04:25:44;96684.45;;;12.50;54.43
52935;BME280;38802;50.198;19.796;2023-06-05T04:28:14;96682.74;;;12.56;54.51
52935;BME280;38802;50.198;19.796;2023-06-05T04:30:43;96680.54;;;12.60;54.55
52935;BME280;38802;50.198;19.796;2023-06-05T04:33:14;96679.56;;;12.65;54.47
52935;BME280;38802;50.198;19.796;2023-06-05T04:35:43;96680.87;;;12.73;54.64
52935;BME280;38802;50.198;19.796;2023-06-05T04:38:11;96679.23;;;12.80;54.65
52935;BME280;38802;50.198;19.796;2023-06-05T04:40:42;96681.77;;;12.86;54.50
52935;BME280;38802;50.198;19.796;2023-06-05T04:43:11;96682.19;;;12.94;54.43
52935;BME280;38802;50.198;19.796;2023-06-05T04:45:40;96684.84;;;13.02;54.50
52935;BME280;38802;50.198;19.796;2023-06-05T04:48:11;96679.77;;;13.10;54.64
52935;BME280;38802;50.198;19.796;2023-06-05T04:50:39;96675.43;;;13.20;54.57
52935;BME280;38802;50.198;19.796;2023-06-05T04:53:10;96673.68;;;13.31;54.66
52935;BME280;38802;50.198;19.796;2023-06-05T04:55:40;96675.35;;;13.39;54.75
52935;BME280;38802;50.198;19.796;2023-06-05T04:58:08;96673.67;;;13.49;54.46
52935;BME280;38802;50.198;19.796;2023-06-05T05:00:37;96677.45;;;13.60;54.57
52935;BME280;38802;50.198;19.796;2023-06-05T05:03:05;96675.08;;;13.73;54.55
52935;BME280;38802;50.198;19.796;2023-06-05T05:05:34;96676.24;;;13.87;54.16
52935;BME280;38802;50.198;19.796;2023-06-05T05:08:04;96674.18;;;14.03;54.39
52935;BME280;38802;50.198;19.796;2023-06-05T05:10:33;96675.13;;;14.15;54.04
52935;BME280;38802;50.198;19.796;2023-06-05T05:13:01;96672.84;;;14.31;54.18
52935;BME280;38802;50.198;19.796;2023-06-05T05:15:30;96673.11;;;14.49;54.05
52935;BME280;38802;50.198;19.796;2023-06-05T05:17:59;96672.77;;;14.63;53.57
52935;BME280;38802;50.198;19.796;2023-06-05T05:20:31;96671.95;;;14.76;53.80
52935;BME280;38802;50.198;19.796;2023-06-05T05:23:00;96671.45;;;14.90;53.40
52935;BME280;38802;50.198;19.796;2023-06-05T05:25:29;96670.69;;;15.06;53.58
52935;BME280;38802;50.198;19.796;2023-06-05T05:27:57;96668.89;;;15.27;53.18
52935;BME280;38802;50.198;19.796;2023-06-05T05:30:25;96674.33;;;15.47;52.88
52935;BME280;38802;50.198;19.796;2023-06-05T05:32:53;96675.15;;;15.70;52.97
52935;BME280;38802;50.198;19.796;2023-06-05T05:35:22;96672.21;;;15.95;52.51
52935;BME280;38802;50.198;19.796;2023-06-05T05:37:50;96671.99;;;16.17;52.22
52935;BME280;38802;50.198;19.796;2023-06-05T05:40:18;96670.76;;;16.37;51.90
52935;BME280;38802;50.198;19.796;2023-06-05T05:42:46;96670.90;;;16.50;51.35
52935;BME280;38802;50.198;19.796;2023-06-05T05:45:14;96675.27;;;16.66;51.12
52935;BME280;38802;50.198;19.796;2023-06-05T05:47:43;96672.54;;;16.82;51.25
52935;BME280;38802;50.198;19.796;2023-06-05T05:50:11;96673.03;;;17.06;50.96
52935;BME280;38802;50.198;19.796;2023-06-05T05:52:39;96666.52;;;17.26;50.40
52935;BME280;38802;50.198;19.796;2023-06-05T05:55:07;96667.57;;;17.47;50.21
52935;BME280;38802;50.198;19.796;2023-06-05T05:57:35;96671.56;;;17.71;50.45
52935;BME280;38802;50.198;19.796;2023-06-05T06:00:04;96673.84;;;18.00;49.69
52935;BME280;38802;50.198;19.796;2023-06-05T06:02:39;96675.92;;;18.24;49.52
52935;BME280;38802;50.198;19.796;2023-06-05T06:05:07;96676.29;;;18.36;48.94
52935;BME280;38802;50.198;19.796;2023-06-05T06:07:35;96676.97;;;18.60;48.98
52935;BME280;38802;50.198;19.796;2023-06-05T06:10:04;96674.43;;;18.80;48.82
52935;BME280;38802;50.198;19.796;2023-06-05T06:12:32;96676.08;;;19.00;47.99
52935;BME280;38802;50.198;19.796;2023-06-05T06:15:00;96673.15;;;19.21;48.05
52935;BME280;38802;50.198;19.796;2023-06-05T06:17:29;96679.52;;;19.35;47.47
52935;BME280;38802;50.198;19.796;2023-06-05T06:19:57;96673.50;;;19.46;47.15
52935;BME280;38802;50.198;19.796;2023-06-05T06:22:25;96673.53;;;19.57;47.34
52935;BME280;38802;50.198;19.796;2023-06-05T06:24:54;96673.58;;;19.70;46.54
52935;BME280;38802;50.198;19.796;2023-06-05T06:27:23;96677.44;;;19.87;45.85
52935;BME280;38802;50.198;19.796;2023-06-05T06:29:55;96676.88;;;19.95;45.96
52935;BME280;38802;50.198;19.796;2023-06-05T06:32:23;96676.77;;;20.10;46.01
52935;BME280;38802;50.198;19.796;2023-06-05T06:34:53;96675.13;;;20.24;45.41
52935;BME280;38802;50.198;19.796;2023-06-05T06:37:22;96677.16;;;20.29;45.55
52935;BME280;38802;50.198;19.796;2023-06-05T06:39:50;96680.70;;;20.42;44.91
52935;BME280;38802;50.198;19.796;2023-06-05T06:42:19;96677.64;;;20.57;45.38
52935;BME280;38802;50.198;19.796;2023-06-05T06:44:59;96675.38;;;20.80;45.30
52935;BME280;38802;50.198;19.796;2023-06-05T06:47:28;96671.14;;;20.98;44.98
52935;BME280;38802;50.198;19.796;2023-06-05T06:49:57;96675.45;;;21.11;44.61
52935;BME280;38802;50.198;19.796;2023-06-05T06:52:25;96672.88;;;21.22;44.67
52935;BME280;38802;50.198;19.796;2023-06-05T06:54:54;96670.69;;;21.35;44.53
52935;BME280;38802;50.198;19.796;2023-06-05T06:57:22;96669.52;;;21.43;43.54
52935;BME280;38802;50.198;19.796;2023-06-05T06:59:50;96671.37;;;21.44;42.56
52935;BME280;38802;50.198;19.796;2023-06-05T07:02:19;96671.24;;;21.46;42.85
52935;BME280;38802;50.198;19.796;2023-06-05T07:04:48;96669.77;;;21.53;42.67
52935;BME280;38802;50.198;19.796;2023-06-05T07:07:17;96670.15;;;21.57;41.48
52935;BME280;38802;50.198;19.796;2023-06-05T07:09:49;96670.40;;;21.56;41.94
52935;BME280;38802;50.198;19.796;2023-06-05T07:12:17;96672.77;;;21.71;41.79
52935;BME280;38802;50.198;19.796;2023-06-05T07:14:47;96675.17;;;21.74;41.38
52935;BME280;38802;50.198;19.796;2023-06-05T07:17:15;96672.09;;;21.79;40.88
52935;BME280;38802;50.198;19.796;2023-06-05T07:19:43;96676.62;;;21.89;40.86
52935;BME280;38802;50.198;19.796;2023-06-05T07:22:11;96675.74;;;21.88;40.62
52935;BME280;38802;50.198;19.796;2023-06-05T07:24:39;96678.27;;;21.93;41.02
52935;BME280;38802;50.198;19.796;2023-06-05T07:27:07;96679.41;;;21.98;40.10
52935;BME280;38802;50.198;19.796;2023-06-05T07:29:39;96678.85;;;21.94;40.00
52935;BME280;38802;50.198;19.796;2023-06-05T07:32:07;96680.21;;;21.92;40.04
52935;BME280;38802;50.198;19.796;2023-06-05T07:34:36;96679.23;;;21.99;40.41
52935;BME280;38802;50.198;19.796;2023-06-05T07:37:04;96683.03;;;22.13;40.49
52935;BME280;38802;50.198;19.796;2023-06-05T07:39:35;96684.77;;;22.15;39.69
52935;BME280;38802;50.198;19.796;2023-06-05T07:42:03;96684.79;;;22.17;39.87
52935;BME280;38802;50.198;19.796;2023-06-05T07:44:32;96684.13;;;22.11;38.36
52935;BME280;38802;50.198;19.796;2023-06-05T07:47:00;96686.58;;;22.05;39.05
52935;BME280;38802;50.198;19.796;2023-06-05T07:49:30;96686.17;;;22.16;39.46
52935;BME280;38802;50.198;19.796;2023-06-05T07:51:59;96679.52;;;22.33;39.49
52935;BME280;38802;50.198;19.796;2023-06-05T07:54:28;96678.47;;;22.43;39.36
52935;BME280;38802;50.198;19.796;2023-06-05T07:56:57;96675.93;;;22.50;39.51
52935;BME280;38802;50.198;19.796;2023-06-05T07:59:25;96676.79;;;22.70;39.71
52935;BME280;38802;50.198;19.796;2023-06-05T08:01:56;96677.21;;;22.80;39.25
52935;BME280;38802;50.198;19.796;2023-06-05T08:04:24;96675.16;;;22.83;38.28
52935;BME280;38802;50.198;19.796;2023-06-05T08:06:53;96676.23;;;22.76;38.15
52935;BME280;38802;50.198;19.796;2023-06-05T08:09:21;96674.98;;;22.78;37.87
52935;BME280;38802;50.198;19.796;2023-06-05T08:11:49;96670.01;;;22.82;38.00
52935;BME280;38802;50.198;19.796;2023-06-05T08:14:17;96664.92;;;22.90;38.91
52935;BME280;38802;50.198;19.796;2023-06-05T08:16:45;96665.34;;;23.11;38.72
52935;BME280;38802;50.198;19.796;2023-06-05T08:19:14;96667.70;;;23.27;37.84
52935;BME280;38802;50.198;19.796;2023-06-05T08:21:42;96667.86;;;23.34;37.78
52935;BME280;38802;50.198;19.796;2023-06-05T08:24:11;96666.42;;;23.36;36.03
52935;BME280;38802;50.198;19.796;2023-06-05T08:26:39;96665.11;;;23.20;35.52
52935;BME280;38802;50.198;19.796;2023-06-05T08:29:07;96664.97;;;23.22;34.93
52935;BME280;38802;50.198;19.796;2023-06-05T08:31:35;96669.10;;;23.17;35.07
52935;BME280;38802;50.198;19.796;2023-06-05T08:34:04;96674.59;;;23.25;34.92
52935;BME280;38802;50.198;19.796;2023-06-05T08:36:33;96669.83;;;23.34;35.20
52935;BME280;38802;50.198;19.796;2023-06-05T08:39:03;96668.13;;;23.47;35.45
52935;BME280;38802;50.198;19.796;2023-06-05T08:41:32;96667.16;;;23.55;34.91
52935;BME280;38802;50.198;19.796;2023-06-05T08:44:01;96668.11;;;23.52;34.13
52935;BME280;38802;50.198;19.796;2023-06-05T08:46:29;96668.47;;;23.55;34.99
52935;BME280;38802;50.198;19.796;2023-06-05T08:49:08;96664.15;;;23.54;33.62
52935;BME280;38802;50.198;19.796;2023-06-05T08:51:41;96669.08;;;23.38;33.47
52935;BME280;38802;50.198;19.796;2023-06-05T08:54:24;96666.02;;;23.29;33.84
52935;BME280;38802;50.198;19.796;2023-06-05T08:56:57;96665.76;;;23.25;33.52
52935;BME280;38802;50.198;19.796;2023-06-05T08:59:26;96665.51;;;23.12;34.27
52935;BME280;38802;50.198;19.796;2023-06-05T09:01:56;96664.96;;;23.10;34.13
52935;BME280;38802;50.198;19.796;2023-06-05T09:04:25;96669.51;;;23.10;33.86
52935;BME280;38802;50.198;19.796;2023-06-05T09:07:01;96668.53;;;23.05;33.93
52935;BME280;38802;50.198;19.796;2023-06-05T09:09:31;96669.35;;;22.96;33.68
52935;BME280;38802;50.198;19.796;2023-06-05T09:12:06;96669.02;;;22.97;34.11
52935;BME280;38802;50.198;19.796;2023-06-05T09:14:35;96665.41;;;23.09;34.59
52935;BME280;38802;50.198;19.796;2023-06-05T09:17:04;96665.92;;;23.26;34.50
52935;BME280;38802;50.198;19.796;2023-06-05T09:19:39;96666.02;;;23.28;34.40
52935;BME280;38802;50.198;19.796;2023-06-05T09:22:08;96661.88;;;23.27;34.47
52935;BME280;38802;50.198;19.796;2023-06-05T09:24:37;96667.42;;;23.22;34.38
52935;BME280;38802;50.198;19.796;2023-06-05T09:27:08;96670.13;;;23.18;34.49
52935;BME280;38802;50.198;19.796;2023-06-05T09:29:38;96670.15;;;23.08;34.05
52935;BME280;38802;50.198;19.796;2023-06-05T09:32:08;96668.73;;;23.04;34.17
52935;BME280;38802;50.198;19.796;2023-06-05T09:34:39;96663.31;;;23.07;34.72
52935;BME280;38802;50.198;19.796;2023-06-05T09:37:10;96665.95;;;23.05;34.21
52935;BME280;38802;50.198;19.796;2023-06-05T09:39:40;96661.34;;;22.96;33.93
52935;BME280;38802;50.198;19.796;2023-06-05T09:42:11;96669.63;;;22.91;34.40
52935;BME280;38802;50.198;19.796;2023-06-05T09:44:39;96665.45;;;22.95;34.61
52935;BME280;38802;50.198;19.796;2023-06-05T09:47:11;96663.53;;;22.99;34.80
52935;BME280;38802;50.198;19.796;2023-06-05T09:52:11;96654.81;;;23.00;34.64
52935;BME280;38802;50.198;19.796;2023-06-05T09:54:43;96650.39;;;23.02;34.64
52935;BME280;38802;50.198;19.796;2023-06-05T09:57:14;96649.30;;;23.05;34.97
52935;BME280;38802;50.198;19.796;2023-06-05T09:59:49;96646.50;;;23.13;35.07
52935;BME280;38802;50.198;19.796;2023-06-05T10:02:24;96650.04;;;23.17;34.68
52935;BME280;38802;50.198;19.796;2023-06-05T10:05:00;96652.82;;;23.09;34.88
52935;BME280;38802;50.198;19.796;2023-06-05T10:07:30;96649.88;;;22.95;34.68
52935;BME280;38802;50.198;19.796;2023-06-05T10:09:59;96647.95;;;22.83;34.73
52935;BME280;38802;50.198;19.796;2023-06-05T10:12:30;96644.73;;;22.84;35.06
52935;BME280;38802;50.198;19.796;2023-06-05T10:14:59;96647.06;;;22.81;35.00
52935;BME280;38802;50.198;19.796;2023-06-05T10:17:29;96643.36;;;22.76;34.79
52935;BME280;38802;50.198;19.796;2023-06-05T10:20:01;96643.45;;;22.76;35.24
52935;BME280;38802;50.198;19.796;2023-06-05T10:22:29;96636.52;;;22.92;35.47
52935;BME280;38802;50.198;19.796;2023-06-05T10:25:03;96640.89;;;23.05;35.54
52935;BME280;38802;50.198;19.796;2023-06-05T10:38:29;96639.04;;;23.03;35.20
52935;BME280;38802;50.198;19.796;2023-06-05T10:41:00;96638.50;;;22.98;35.35
52935;BME280;38802;50.198;19.796;2023-06-05T10:43:32;96639.13;;;23.01;35.55
52935;BME280;38802;50.198;19.796;2023-06-05T10:46:02;96633.67;;;22.98;35.39
52935;BME280;38802;50.198;19.796;2023-06-05T10:49:09;96632.33;;;22.95;35.41
52935;BME280;38802;50.198;19.796;2023-06-05T10:59:30;96625.24;;;22.95;35.24
52935;BME280;38802;50.198;19.796;2023-06-05T11:07:25;96615.80;;;23.09;35.34
52935;BME280;38802;50.198;19.796;2023-06-05T11:10:11;96621.14;;;23.13;35.63
52935;BME280;38802;50.198;19.796;2023-06-05T11:17:52;96620.38;;;23.02;34.95
52935;BME280;38802;50.198;19.796;2023-06-05T11:27:57;96629.72;;;22.80;34.96
52935;BME280;38802;50.198;19.796;2023-06-05T11:30:40;96628.91;;;22.81;35.55
52935;BME280;38802;50.198;19.796;2023-06-05T11:33:18;96621.70;;;22.90;35.41
52935;BME280;38802;50.198;19.796;2023-06-05T11:35:49;96622.83;;;22.93;35.23
52935;BME280;38802;50.198;19.796;2023-06-05T11:38:20;96622.96;;;22.96;35.60
52935;BME280;38802;50.198;19.796;2023-06-05T11:40:54;96615.45;;;22.99;35.48
52935;BME280;38802;50.198;19.796;2023-06-05T11:43:23;96617.09;;;23.06;35.62
52935;BME280;38802;50.198;19.796;2023-06-05T11:45:56;96616.28;;;23.07;35.36
52935;BME280;38802;50.198;19.796;2023-06-05T11:48:25;96609.96;;;23.03;35.31
52935;BME280;38802;50.198;19.796;2023-06-05T11:50:58;96613.81;;;23.06;35.63
52935;BME280;38802;50.198;19.796;2023-06-05T11:53:27;96608.64;;;23.08;35.54
52935;BME280;38802;50.198;19.796;2023-06-05T11:55:57;96606.14;;;23.08;34.88
52935;BME280;38802;50.198;19.796;2023-06-05T11:58:33;96602.89;;;22.95;35.06
52935;BME280;38802;50.198;19.796;2023-06-05T12:04:07;96602.45;;;22.91;35.71
52935;BME280;38802;50.198;19.796;2023-06-05T12:06:45;96603.34;;;22.96;35.40
52935;BME280;38802;50.198;19.796;2023-06-05T12:09:16;96602.70;;;22.92;35.39
52935;BME280;38802;50.198;19.796;2023-06-05T12:11:45;96599.36;;;22.93;35.84
52935;BME280;38802;50.198;19.796;2023-06-05T12:14:28;96594.95;;;22.87;35.51
52935;BME280;38802;50.198;19.796;2023-06-05T12:16:56;96592.33;;;22.87;35.47
52935;BME280;38802;50.198;19.796;2023-06-05T12:19:28;96598.77;;;22.84;35.45
52935;BME280;38802;50.198;19.796;2023-06-05T12:22:04;96601.73;;;22.78;35.41
52935;BME280;38802;50.198;19.796;2023-06-05T12:24:33;96598.54;;;22.73;35.73
52935;BME280;38802;50.198;19.796;2023-06-05T12:27:02;96593.20;;;22.74;35.99
52935;BME280;38802;50.198;19.796;2023-06-05T12:29:37;96592.48;;;22.76;36.22
52935;BME280;38802;50.198;19.796;2023-06-05T12:32:25;96589.86;;;22.77;36.19
52935;BME280;38802;50.198;19.796;2023-06-05T12:34:53;96592.97;;;22.71;35.75
52935;BME280;38802;50.198;19.796;2023-06-05T12:37:31;96590.61;;;22.67;35.88
52935;BME280;38802;50.198;19.796;2023-06-05T12:40:01;96587.65;;;22.65;36.22
52935;BME280;38802;50.198;19.796;2023-06-05T12:42:34;96584.27;;;22.70;36.30
52935;BME280;38802;50.198;19.796;2023-06-05T12:45:29;96581.16;;;22.73;36.29
52935;BME280;38802;50.198;19.796;2023-06-05T12:47:58;96574.52;;;22.79;36.47
52935;BME280;38802;50.198;19.796;2023-06-05T12:50:26;96577.97;;;22.86;36.41
52935;BME280;38802;50.198;19.796;2023-06-05T12:52:56;96573.16;;;22.89;36.34
52935;BME280;38802;50.198;19.796;2023-06-05T12:55:24;96573.14;;;22.92;36.24
52935;BME280;38802;50.198;19.796;2023-06-05T12:57:52;96565.33;;;22.89;36.03
52935;BME280;38802;50.198;19.796;2023-06-05T13:00:20;96557.35;;;22.89;35.90
52935;BME280;38802;50.198;19.796;2023-06-05T13:02:49;96555.93;;;22.91;35.99
52935;BME280;38802;50.198;19.796;2023-06-05T13:05:17;96550.64;;;22.95;36.14
52935;BME280;38802;50.198;19.796;2023-06-05T13:07:45;96550.50;;;22.97;35.75
52935;BME280;38802;50.198;19.796;2023-06-05T13:10:14;96549.73;;;22.95;35.92
52935;BME280;38802;50.198;19.796;2023-06-05T13:12:43;96548.80;;;22.90;36.04
52935;BME280;38802;50.198;19.796;2023-06-05T13:15:11;96541.32;;;22.90;36.20
52935;BME280;38802;50.198;19.796;2023-06-05T13:17:39;96544.20;;;22.91;36.59
52935;BME280;38802;50.198;19.796;2023-06-05T13:20:07;96541.91;;;22.94;36.38
52935;BME280;38802;50.198;19.796;2023-06-05T13:22:42;96540.82;;;22.95;36.35
52935;BME280;38802;50.198;19.796;2023-06-05T13:25:10;96537.09;;;22.98;36.22
52935;BME280;38802;50.198;19.796;2023-06-05T13:27:38;96536.06;;;22.94;35.88
52935;BME280;38802;50.198;19.796;2023-06-05T13:30:07;96534.61;;;22.88;36.28
52935;BME280;38802;50.198;19.796;2023-06-05T13:32:36;96529.48;;;22.83;36.29
52935;BME280;38802;50.198;19.796;2023-06-05T13:35:07;96531.55;;;22.83;36.60
52935;BME280;38802;50.198;19.796;2023-06-05T13:37:37;96527.59;;;22.79;36.66
52935;BME280;38802;50.198;19.796;2023-06-05T13:40:06;96528.36;;;22.79;36.75
52935;BME280;38802;50.198;19.796;2023-06-05T13:42:39;96531.98;;;22.81;36.81
52935;BME280;38802;50.198;19.796;2023-06-05T13:45:08;96530.61;;;22.79;36.47
52935;BME280;38802;50.198;19.796;2023-06-05T13:47:36;96527.73;;;22.75;36.57
52935;BME280;38802;50.198;19.796;2023-06-05T13:50:05;96528.75;;;22.77;37.03
52935;BME280;38802;50.198;19.796;2023-06-05T13:52:33;96525.05;;;22.80;36.81